Powersville, Iowa
Current Conditions -  °F | °C
As of 5:15 AM on Saturday 20 Dec 2014 (Local Time) from KCCY Reporting Station
Haze Haze  
Wind Chill: 21°   Ceiling: 500
Heat Index: 28°   Visibility: 4mi
Dew Point: 28°   Wind: 7mph
Humidity: 100%   Direction: 150°SSE
Pressure: 30.18"   Gusts: NA
Location:  42.9285°N, 92.7279°W
Report Text: KCCY 201115Z AUTO 15006KT 4SM BR OVC005 M02/M02 A3018 RMK AO2
Loading
Personal Weather Stations






























Interactive Weather Map New forecast layout! Learn more

10-Day Weather Forecast

Advertisements
Track Severe Weather on mobile